Bookmark and Share
Track history (hours):
 

Linda

Last reported at 2014-Apr-22 20:09 UTC. Time now 2014-Apr-23 09:43 UTC.
Position N 59°59' E 026°38'.

Length 141 m; draft 6.9 m.

Type: Ship (hazmat cat A). MMSI: 230984000.

NotesDate/timePositionNaut miles runAvg speedWind from/ knotsBaromVisibWave heightAir tempDewpointWater temp
2014-Apr-22 20:09N 59°59' E 026°38'4214.2
2014-Apr-22 17:10N 59°60' E 025°14'1012.8
2014-Apr-22 16:22N 60°10' E 025°13'3 0.3
2014-Apr-22 06:33N 60°13' E 025°12'1411.3
2014-Apr-22 05:16N 59°59' E 025°04'1216.6
2014-Apr-22 04:33N 59°49' E 024°50'1616.4
2014-Apr-22 03:34N 59°42' E 024°21'1716.6
2014-Apr-22 02:30N 59°37' E 023°48'1616.7
2014-Apr-22 01:33N 59°31' E 023°18'329 7.5
2014-Apr-20 05:32N 55°46' E 015°50'1514.8
2014-Apr-20 04:31N 55°38' E 015°27'1414.8
2014-Apr-20 03:33N 55°31' E 015°05'1515.2
2014-Apr-20 02:33N 55°24' E 014°42'1515.0
2014-Apr-20 01:33N 55°13' E 014°24'1515.3
2014-Apr-20 00:33N 55°01' E 014°07'1515.2
2014-Apr-19 23:34N 54°55' E 013°42'1514.6
2014-Apr-19 22:34N 54°50' E 013°19'1414.4
2014-Apr-19 21:34N 54°45' E 012°56'1514.7
2014-Apr-19 20:34N 54°38' E 012°33'1414.4
2014-Apr-19 19:34N 54°28' E 012°15'1413.8
2014-Apr-19 18:34N 54°25' E 011°52'1514.6
2014-Apr-19 17:34N 54°30' E 011°28'1715.0
2014-Apr-19 16:26N 54°34' E 011°00'53 8.4
2014-Apr-19 10:08N 54°14' E 009°36'4 6.5
2014-Apr-19 09:33N 54°11' E 009°31'8 7.8
2014-Apr-19 08:33N 54°07' E 009°20'4 4.5
2014-Apr-19 07:33N 54°03' E 009°18'6 6.1
2014-Apr-19 06:33N 53°57' E 009°14'5 4.6
2014-Apr-19 05:33N 53°54' E 009°09'4 3.8
2014-Apr-19 04:34N 53°52' E 009°03'1413.4
2014-Apr-19 03:33N 53°55' E 008°41'1514.9
2014-Apr-19 02:33N 53°60' E 008°16'1515.0
2014-Apr-19 01:34N 53°57' E 007°51'1616.2
2014-Apr-19 00:34N 53°53' E 007°25'1616.4
2014-Apr-18 23:33N 53°50' E 006°58'1916.4
2014-Apr-18 22:24N 53°45' E 006°26'1416.4
2014-Apr-18 21:33N 53°41' E 006°04'1716.6
2014-Apr-18 20:34N 53°36' E 005°37'1716.7
2014-Apr-18 19:34N 53°31' E 005°11'1616.4
2014-Apr-18 18:34N 53°24' E 004°46'3115.7
2014-Apr-18 16:33N 52°57' E 004°19'1515.4
2014-Apr-18 15:33N 52°44' E 004°05'1515.3
2014-Apr-18 14:33N 52°32' E 003°49'4714.3
2014-Apr-18 11:17N 51°49' E 003°20'911.9
2014-Apr-18 10:29N 51°40' E 003°14'1213.0
2014-Apr-18 09:33N 51°30' E 003°04'9 9.2
2014-Apr-18 08:34N 51°25' E 003°16'1615.7
2014-Apr-18 07:34N 51°26' E 003°41'8 8.0
2014-Apr-18 06:34N 51°20' E 003°49'5 4.6
2014-Apr-18 05:34N 51°15' E 003°49'6 5.5
2014-Apr-18 04:33N 51°10' E 003°47'0 0.0
2014-Apr-18 03:31N 51°10' E 003°47'0 0.0
2014-Apr-18 02:31N 51°10' E 003°47'0 0.0
2014-Apr-18 01:31N 51°10' E 003°47'0 0.0
2014-Apr-18 00:31N 51°10' E 003°47'0 0.0
2014-Apr-17 23:31N 51°10' E 003°47'0 0.0
2014-Apr-17 22:28N 51°10' E 003°47'0 0.0
2014-Apr-17 21:31N 51°10' E 003°47'0 0.0
2014-Apr-17 20:31N 51°10' E 003°47'0 0.0
2014-Apr-17 19:22N 51°10' E 003°47'0 0.0
2014-Apr-17 18:31N 51°10' E 003°47'0 0.0
2014-Apr-17 17:28N 51°10' E 003°47'0 0.0
2014-Apr-17 16:28N 51°10' E 003°47'0 0.0
2014-Apr-17 15:28N 51°10' E 003°47'0 0.0
2014-Apr-17 14:31N 51°10' E 003°47'0 0.0
2014-Apr-17 13:28N 51°10' E 003°47'0 0.0
2014-Apr-17 12:28N 51°10' E 003°47'0 0.0
2014-Apr-17 11:28N 51°10' E 003°47'0 0.0
2014-Apr-17 10:28N 51°10' E 003°47'0 0.0
2014-Apr-17 09:28N 51°10' E 003°47'0 0.0
2014-Apr-17 08:31N 51°10' E 003°47'0 0.0
2014-Apr-17 07:31N 51°10' E 003°47'0 0.0
2014-Apr-17 06:31N 51°10' E 003°47'0 0.0
2014-Apr-17 05:22N 51°10' E 003°47'0 0.0
2014-Apr-17 04:16N 51°10' E 003°47'0 0.0
2014-Apr-17 03:31N 51°10' E 003°47'4 4.0
2014-Apr-17 02:34N 51°13' E 003°48'6 6.4
2014-Apr-17 01:34N 51°20' E 003°49'6 6.1
2014-Apr-17 00:33N 51°24' E 003°43'1413.9
2014-Apr-16 23:33N 51°24' E 003°20'1716.9
2014-Apr-16 22:34N 51°22' E 002°54'1211.9
2014-Apr-16 21:33N 51°22' E 002°34'1614.9
2014-Apr-16 20:31N 51°19' E 002°10'1617.1
2014-Apr-16 19:33N 51°29' E 001°49'1212.3
2014-Apr-16 18:33N 51°26' E 001°30'1313.2
2014-Apr-16 17:34N 51°29' E 001°09'1615.6
2014-Apr-16 16:33N 51°27' E 000°44'0 0.4
2014-Apr-16 15:33N 51°26' E 000°44'0 0.0
2014-Apr-16 14:33N 51°26' E 000°44'0 0.0
2014-Apr-16 13:30N 51°26' E 000°44'0 0.0
2014-Apr-16 12:33N 51°26' E 000°44'0 0.0
2014-Apr-16 11:33N 51°26' E 000°44'0 0.0
2014-Apr-16 10:33N 51°26' E 000°44'0 0.0
2014-Apr-16 09:33N 51°26' E 000°44'0 0.0
2014-Apr-16 08:33N 51°26' E 000°44'0 0.0
2014-Apr-16 07:33N 51°26' E 000°44'1111.0
2014-Apr-16 06:33N 51°30' E 001°01'1313.1
2014-Apr-16 05:34N 51°28' E 001°22'10 9.8
2014-Apr-16 04:33N 51°32' E 001°37'1515.1
2014-Apr-16 03:33N 51°46' E 001°44'1515.2
2014-Apr-16 02:33N 52°01' E 001°47'1515.1
2014-Apr-16 01:33N 52°16' E 001°51'1615.7
2014-Apr-16 00:33N 52°32' E 001°53'1515.5
2014-Apr-15 23:34N 52°47' E 001°51'1717.2
2014-Apr-15 22:34N 52°60' E 001°32'1817.6
2014-Apr-15 21:33N 53°15' E 001°16'2117.5
2014-Apr-15 20:21N 53°33' E 000°58'1417.2
2014-Apr-15 19:33N 53°44' E 000°45'1817.6
2014-Apr-15 18:33N 53°57' E 000°24'1818.0
2014-Apr-15 17:34N 54°10' E 000°03'1818.0
2014-Apr-15 16:33N 54°23' W 000°18'1818.0
2014-Apr-15 15:33N 54°35' W 000°42'1615.8
2014-Apr-15 14:33N 54°39' W 001°08'3 1.1
2014-Apr-15 11:32N 54°36' W 001°09'0 0.0
2014-Apr-15 10:32N 54°36' W 001°09'0 0.0
2014-Apr-15 09:32N 54°36' W 001°09'0 0.0
2014-Apr-15 08:32N 54°36' W 001°09'0 0.0
2014-Apr-15 07:32N 54°36' W 001°09'0 0.0
2014-Apr-15 06:32N 54°36' W 001°09'0 0.0
2014-Apr-15 05:32N 54°36' W 001°09'0 0.0
2014-Apr-15 03:32N 54°36' W 001°09'0 0.0
2014-Apr-15 02:32N 54°36' W 001°09'0 0.0
2014-Apr-15 01:32N 54°36' W 001°09'0 0.0
2014-Apr-15 00:32N 54°36' W 001°09'0 0.0
2014-Apr-14 23:32N 54°36' W 001°09'0 0.0
2014-Apr-14 22:32N 54°36' W 001°09'5 5.2
2014-Apr-14 21:33N 54°41' W 001°07'1414.6
2014-Apr-14 20:34N 54°48' W 000°45'1716.9
2014-Apr-14 19:33N 54°55' W 000°19'35214.4
2014-Apr-13 19:12N 57°27' E 009°11'3311.8
2014-Apr-13 16:25N 57°41' E 010°07'1011.5
2014-Apr-13 15:33N 57°45' E 010°24'1010.5
2014-Apr-13 14:33N 57°47' E 010°43'1211.5
2014-Apr-13 13:33N 57°41' E 011°02'1312.7
2014-Apr-13 12:33N 57°32' E 011°19'1313.2
2014-Apr-13 11:33N 57°21' E 011°31'1413.6
2014-Apr-13 10:33N 57°08' E 011°40'1514.6
2014-Apr-13 09:33N 56°54' E 011°48'1414.1
2014-Apr-13 08:33N 56°41' E 011°57'1414.3
2014-Apr-13 07:33N 56°28' E 012°07'1514.6
2014-Apr-13 06:33N 56°16' E 012°22'1413.9
2014-Apr-13 05:33N 56°05' E 012°37'1414.4
2014-Apr-13 04:34N 55°51' E 012°45'1414.5
2014-Apr-13 03:33N 55°37' E 012°42'1313.3
2014-Apr-13 02:33N 55°24' E 012°41'1212.2
2014-Apr-13 01:33N 55°16' E 012°57'1514.9
2014-Apr-13 00:33N 55°15' E 013°24'1514.6
2014-Apr-12 23:34N 55°15' E 013°49'1514.9
2014-Apr-12 22:33N 55°14' E 014°15'1514.8
2014-Apr-12 21:33N 55°25' E 014°32'1514.9
2014-Apr-12 20:34N 55°33' E 014°54'  

Dump ship's entire track history

sailing weather and tide predictions

Linda — OJML — position and weather